Portada
METAR-TAF:

METAR-TAF

Aeroports :

Manado, Indonèsia

latitud: 01-32N, longitud: 124-55E, altitud: 80 m

Observació

L'informe es va fer fa 42 minuts, a les 06:00 UTC
Vent 8 kt del Sud
Temperatura 34°C
Humitat 47%
Pressió 1007 hPa
Visibilitat 10 km o més
Núvols disperses a una alçada de 2100 ft

METAR: WAMM 270600Z 18008KT 9999 SCT021 34/21 Q1007 NOSIG

Hora: 13:42 (06:42 UTC)

Pronòstic

L'informe es va fer fa 1 hora i 42 minuts, a les 05:00 UTC
Pronòstic vàlid del 27 a les 06 UTC al 28 a les 12 UTC
Vent 12 kt del Sud
Visibilitat 10 km o més
Escasses núvols a una alçada de 2100 ft
Evolucionant progressivament
l' 27 a les 11 UTC al 27 a les 12 UTC
Vent 2 kt amb direcció variable

TAF: WAMM 270500Z 2706/2812 18012KT 9999 FEW021 BECMG 2711/2712 VRB02KT

Observacions i pronòstics meteorològics de més de 4000 aeroports (METAR i TAF).

Les estacions disponibles són els punts grocs i vermells al mapa.

Posi el ratolí al punt desitjat per veure el nom de l'estació.

Feu clic per veure les observacions i els pronòstics meteorològics.

Per canviar el mapa: feu clic els botons verds amb una creu de color negre per apropar; al botó verd amb un guió per allunyar la imatge; o en les fletxes verdes per a mapes adjacents.


METAR-TAF: